Pagina principală
METAR-TAF:

METAR-TAF

Aeroporturi :

Jayapura, Indonezia

Latitudine: 02-34-37S, longitudine: 140-30-58E, elevație: 88 m

Observații meteo curente

Raportul a fost făcut în urmă cu 8 de minute, la 09:00 UTC
Vânt 12 kt de la Vest
Temperatură 29°C
Umiditate 66%
Presiune 1005 hPa
Vizibilitate de 10 km sau mai mult
Nori împrăștiați la o înălțime de 1300 picior

METAR: WAJJ 290900Z 27012KT 9999 SCT013 29/22 Q1005 NOSIG

Ora: 16:08 (09:08 UTC)


TAF: lipsă

Observații și prognoze meteo pentru peste 4.000 de aeroporturi (rapoarte METAR și TAF).

Stațiile disponibile sunt reprezentate pe hartă prin puncte galbene și roșii.

Țineți indicatorul mouse-ului pe punctul dorit pentru a vedea denumirea stației.

Apoi, faceți clic pentru a vedea observațiile și prognozele meteorologice.

Pentru a schimba harta: Pentru mărire, faceți clic pe butoanele verzi cu cruce neagră; pentru micșorare, pe butonul verde cu o liniuță; pentru hărți învecinate, pe săgețile verzi.


METAR-TAF: